sensor_id;sensor_type;location;lat;lon;timestamp;P1;durP1;ratioP1;P2;durP2;ratioP2
17390;SDS011;8813;54.444;18.446;2023-05-10T00:01:36;1.88;;;1.77;;
17390;SDS011;8813;54.444;18.446;2023-05-10T00:04:03;1.08;;;1.08;;
17390;SDS011;8813;54.444;18.446;2023-05-10T00:06:30;0.70;;;0.70;;
17390;SDS011;8813;54.444;18.446;2023-05-10T00:08:57;2.50;;;1.60;;
17390;SDS011;8813;54.444;18.446;2023-05-10T00:11:24;0.70;;;0.70;;
17390;SDS011;8813;54.444;18.446;2023-05-10T00:13:51;1.15;;;1.15;;
17390;SDS011;8813;54.444;18.446;2023-05-10T00:16:18;0.60;;;0.60;;
17390;SDS011;8813;54.444;18.446;2023-05-10T00:18:46;0.90;;;0.90;;
17390;SDS011;8813;54.444;18.446;2023-05-10T00:21:13;0.60;;;0.60;;
17390;SDS011;8813;54.444;18.446;2023-05-10T00:23:40;1.00;;;1.00;;
17390;SDS011;8813;54.444;18.446;2023-05-10T00:26:07;0.85;;;0.85;;
17390;SDS011;8813;54.444;18.446;2023-05-10T00:28:34;1.27;;;1.25;;
17390;SDS011;8813;54.444;18.446;2023-05-10T00:31:01;0.80;;;0.80;;
17390;SDS011;8813;54.444;18.446;2023-05-10T00:33:28;1.25;;;1.25;;
17390;SDS011;8813;54.444;18.446;2023-05-10T00:35:57;1.17;;;1.17;;
17390;SDS011;8813;54.444;18.446;2023-05-10T00:38:24;0.60;;;0.60;;
17390;SDS011;8813;54.444;18.446;2023-05-10T00:40:51;0.73;;;0.70;;
17390;SDS011;8813;54.444;18.446;2023-05-10T00:43:18;0.65;;;0.65;;
17390;SDS011;8813;54.444;18.446;2023-05-10T00:45:44;1.05;;;1.05;;
17390;SDS011;8813;54.444;18.446;2023-05-10T00:48:12;0.88;;;0.88;;
17390;SDS011;8813;54.444;18.446;2023-05-10T00:50:39;0.60;;;0.60;;
17390;SDS011;8813;54.444;18.446;2023-05-10T00:53:08;0.70;;;0.70;;
17390;SDS011;8813;54.444;18.446;2023-05-10T00:55:35;0.70;;;0.70;;
17390;SDS011;8813;54.444;18.446;2023-05-10T00:58:02;0.85;;;0.85;;
17390;SDS011;8813;54.444;18.446;2023-05-10T01:00:29;1.13;;;1.02;;
17390;SDS011;8813;54.444;18.446;2023-05-10T01:02:56;0.63;;;0.63;;
17390;SDS011;8813;54.444;18.446;2023-05-10T01:05:23;0.93;;;0.90;;
17390;SDS011;8813;54.444;18.446;2023-05-10T01:07:50;0.82;;;0.82;;
17390;SDS011;8813;54.444;18.446;2023-05-10T01:10:19;1.55;;;1.45;;
17390;SDS011;8813;54.444;18.446;2023-05-10T01:12:46;0.75;;;0.75;;
17390;SDS011;8813;54.444;18.446;2023-05-10T01:15:13;0.70;;;0.70;;
17390;SDS011;8813;54.444;18.446;2023-05-10T01:17:41;0.60;;;0.60;;
17390;SDS011;8813;54.444;18.446;2023-05-10T01:20:10;0.85;;;0.85;;
17390;SDS011;8813;54.444;18.446;2023-05-10T01:31:30;0.60;;;0.60;;
17390;SDS011;8813;54.444;18.446;2023-05-10T01:34:07;0.70;;;0.70;;
17390;SDS011;8813;54.444;18.446;2023-05-10T01:36:39;0.60;;;0.60;;
17390;SDS011;8813;54.444;18.446;2023-05-10T01:39:09;1.15;;;1.05;;
17390;SDS011;8813;54.444;18.446;2023-05-10T01:41:40;0.60;;;0.60;;
17390;SDS011;8813;54.444;18.446;2023-05-10T01:44:16;0.77;;;0.77;;
17390;SDS011;8813;54.444;18.446;2023-05-10T01:46:45;0.60;;;0.60;;
17390;SDS011;8813;54.444;18.446;2023-05-10T01:49:18;0.85;;;0.85;;
17390;SDS011;8813;54.444;18.446;2023-05-10T01:51:49;0.80;;;0.80;;
17390;SDS011;8813;54.444;18.446;2023-05-10T01:54:20;0.88;;;0.88;;
17390;SDS011;8813;54.444;18.446;2023-05-10T01:56:49;11.70;;;1.35;;
17390;SDS011;8813;54.444;18.446;2023-05-10T01:59:19;0.70;;;0.70;;
17390;SDS011;8813;54.444;18.446;2023-05-10T02:01:46;0.50;;;0.50;;
17390;SDS011;8813;54.444;18.446;2023-05-10T02:04:15;0.70;;;0.70;;
17390;SDS011;8813;54.444;18.446;2023-05-10T02:06:44;0.90;;;0.90;;
17390;SDS011;8813;54.444;18.446;2023-05-10T02:09:13;0.80;;;0.80;;
17390;SDS011;8813;54.444;18.446;2023-05-10T02:11:41;0.95;;;0.95;;
17390;SDS011;8813;54.444;18.446;2023-05-10T02:14:09;0.60;;;0.60;;
17390;SDS011;8813;54.444;18.446;2023-05-10T02:16:38;0.50;;;0.50;;
17390;SDS011;8813;54.444;18.446;2023-05-10T02:19:05;0.70;;;0.70;;
17390;SDS011;8813;54.444;18.446;2023-05-10T02:21:36;0.90;;;0.90;;
17390;SDS011;8813;54.444;18.446;2023-05-10T02:24:04;3.83;;;1.60;;
17390;SDS011;8813;54.444;18.446;2023-05-10T02:26:32;2.03;;;1.93;;
17390;SDS011;8813;54.444;18.446;2023-05-10T02:29:01;0.70;;;0.70;;
17390;SDS011;8813;54.444;18.446;2023-05-10T02:31:29;1.05;;;1.05;;
17390;SDS011;8813;54.444;18.446;2023-05-10T02:33:56;1.23;;;1.23;;
17390;SDS011;8813;54.444;18.446;2023-05-10T02:36:24;2.33;;;2.13;;
17390;SDS011;8813;54.444;18.446;2023-05-10T02:38:54;0.60;;;0.60;;
17390;SDS011;8813;54.444;18.446;2023-05-10T02:41:21;2.45;;;2.35;;
17390;SDS011;8813;54.444;18.446;2023-05-10T02:43:49;0.70;;;0.70;;
17390;SDS011;8813;54.444;18.446;2023-05-10T02:46:17;0.70;;;0.70;;
17390;SDS011;8813;54.444;18.446;2023-05-10T02:48:44;8.35;;;6.22;;
17390;SDS011;8813;54.444;18.446;2023-05-10T02:51:11;0.93;;;0.93;;
17390;SDS011;8813;54.444;18.446;2023-05-10T02:53:43;0.60;;;0.60;;
17390;SDS011;8813;54.444;18.446;2023-05-10T02:56:13;5.35;;;1.33;;
17390;SDS011;8813;54.444;18.446;2023-05-10T02:58:45;1.02;;;1.02;;
17390;SDS011;8813;54.444;18.446;2023-05-10T03:01:12;0.50;;;0.50;;
17390;SDS011;8813;54.444;18.446;2023-05-10T03:03:39;0.82;;;0.82;;
17390;SDS011;8813;54.444;18.446;2023-05-10T03:06:06;0.60;;;0.60;;
17390;SDS011;8813;54.444;18.446;2023-05-10T03:08:34;0.53;;;0.53;;
17390;SDS011;8813;54.444;18.446;2023-05-10T03:11:05;0.50;;;0.50;;
17390;SDS011;8813;54.444;18.446;2023-05-10T03:13:44;0.70;;;0.70;;
17390;SDS011;8813;54.444;18.446;2023-05-10T03:16:17;0.70;;;0.70;;
17390;SDS011;8813;54.444;18.446;2023-05-10T03:18:50;0.70;;;0.70;;
17390;SDS011;8813;54.444;18.446;2023-05-10T03:21:22;1.25;;;1.25;;
17390;SDS011;8813;54.444;18.446;2023-05-10T03:23:50;2.00;;;1.90;;
17390;SDS011;8813;54.444;18.446;2023-05-10T03:26:20;0.70;;;0.70;;
17390;SDS011;8813;54.444;18.446;2023-05-10T03:28:50;3.00;;;2.80;;
17390;SDS011;8813;54.444;18.446;2023-05-10T03:31:19;0.80;;;0.80;;
17390;SDS011;8813;54.444;18.446;2023-05-10T03:33:46;0.80;;;0.80;;
17390;SDS011;8813;54.444;18.446;2023-05-10T03:36:14;0.88;;;0.88;;
17390;SDS011;8813;54.444;18.446;2023-05-10T03:38:41;0.70;;;0.70;;
17390;SDS011;8813;54.444;18.446;2023-05-10T03:41:08;0.95;;;0.95;;
17390;SDS011;8813;54.444;18.446;2023-05-10T03:43:36;0.80;;;0.80;;
17390;SDS011;8813;54.444;18.446;2023-05-10T03:46:03;1.23;;;1.23;;
17390;SDS011;8813;54.444;18.446;2023-05-10T03:48:31;0.70;;;0.70;;
17390;SDS011;8813;54.444;18.446;2023-05-10T03:50:59;0.80;;;0.80;;
17390;SDS011;8813;54.444;18.446;2023-05-10T03:53:26;1.45;;;1.45;;
17390;SDS011;8813;54.444;18.446;2023-05-10T03:55:53;0.82;;;0.82;;
17390;SDS011;8813;54.444;18.446;2023-05-10T03:58:20;0.70;;;0.70;;
17390;SDS011;8813;54.444;18.446;2023-05-10T04:00:48;0.93;;;0.93;;
17390;SDS011;8813;54.444;18.446;2023-05-10T04:03:15;2.03;;;1.92;;
17390;SDS011;8813;54.444;18.446;2023-05-10T04:05:42;2.15;;;2.05;;
17390;SDS011;8813;54.444;18.446;2023-05-10T04:08:09;1.13;;;1.13;;
17390;SDS011;8813;54.444;18.446;2023-05-10T04:10:36;1.48;;;1.48;;
17390;SDS011;8813;54.444;18.446;2023-05-10T04:13:03;1.30;;;1.30;;
17390;SDS011;8813;54.444;18.446;2023-05-10T04:15:30;1.73;;;1.60;;
17390;SDS011;8813;54.444;18.446;2023-05-10T04:17:59;1.90;;;1.80;;
17390;SDS011;8813;54.444;18.446;2023-05-10T04:20:25;2.30;;;2.00;;
17390;SDS011;8813;54.444;18.446;2023-05-10T04:22:53;1.38;;;1.38;;
17390;SDS011;8813;54.444;18.446;2023-05-10T04:25:20;2.28;;;1.75;;
17390;SDS011;8813;54.444;18.446;2023-05-10T04:27:47;1.58;;;1.48;;
17390;SDS011;8813;54.444;18.446;2023-05-10T04:30:14;1.35;;;1.25;;
17390;SDS011;8813;54.444;18.446;2023-05-10T04:32:41;1.00;;;1.00;;
17390;SDS011;8813;54.444;18.446;2023-05-10T04:35:10;1.55;;;1.48;;
17390;SDS011;8813;54.444;18.446;2023-05-10T04:37:37;1.38;;;1.27;;
17390;SDS011;8813;54.444;18.446;2023-05-10T04:40:04;1.10;;;1.10;;
17390;SDS011;8813;54.444;18.446;2023-05-10T04:42:32;1.02;;;1.02;;
17390;SDS011;8813;54.444;18.446;2023-05-10T04:44:59;1.55;;;1.45;;
17390;SDS011;8813;54.444;18.446;2023-05-10T04:47:26;1.67;;;1.63;;
17390;SDS011;8813;54.444;18.446;2023-05-10T04:49:53;2.97;;;2.78;;
17390;SDS011;8813;54.444;18.446;2023-05-10T04:52:22;2.17;;;2.08;;
17390;SDS011;8813;54.444;18.446;2023-05-10T04:54:49;1.70;;;1.60;;
17390;SDS011;8813;54.444;18.446;2023-05-10T04:57:16;1.50;;;1.50;;
17390;SDS011;8813;54.444;18.446;2023-05-10T04:59:43;0.95;;;0.95;;
17390;SDS011;8813;54.444;18.446;2023-05-10T05:02:09;1.98;;;1.52;;
17390;SDS011;8813;54.444;18.446;2023-05-10T05:04:37;0.90;;;0.90;;
17390;SDS011;8813;54.444;18.446;2023-05-10T05:07:04;1.33;;;0.80;;
17390;SDS011;8813;54.444;18.446;2023-05-10T05:09:33;2.85;;;2.63;;
17390;SDS011;8813;54.444;18.446;2023-05-10T05:12:00;2.47;;;2.38;;
17390;SDS011;8813;54.444;18.446;2023-05-10T05:14:27;2.13;;;2.00;;
17390;SDS011;8813;54.444;18.446;2023-05-10T05:16:54;1.00;;;1.00;;
17390;SDS011;8813;54.444;18.446;2023-05-10T05:19:21;0.80;;;0.80;;
17390;SDS011;8813;54.444;18.446;2023-05-10T05:21:48;0.90;;;0.90;;
17390;SDS011;8813;54.444;18.446;2023-05-10T05:24:14;3.15;;;2.95;;
17390;SDS011;8813;54.444;18.446;2023-05-10T05:26:43;0.98;;;0.98;;
17390;SDS011;8813;54.444;18.446;2023-05-10T05:29:10;2.70;;;2.60;;
17390;SDS011;8813;54.444;18.446;2023-05-10T05:31:37;6.57;;;1.40;;
17390;SDS011;8813;54.444;18.446;2023-05-10T05:34:04;2.47;;;1.70;;
17390;SDS011;8813;54.444;18.446;2023-05-10T05:36:31;2.33;;;2.22;;
17390;SDS011;8813;54.444;18.446;2023-05-10T05:38:58;2.47;;;2.28;;
17390;SDS011;8813;54.444;18.446;2023-05-10T05:41:26;3.05;;;2.85;;
17390;SDS011;8813;54.444;18.446;2023-05-10T05:43:54;0.80;;;0.80;;
17390;SDS011;8813;54.444;18.446;2023-05-10T05:46:21;1.45;;;1.45;;
17390;SDS011;8813;54.444;18.446;2023-05-10T05:48:48;1.42;;;1.42;;
17390;SDS011;8813;54.444;18.446;2023-05-10T05:51:15;1.40;;;1.40;;
17390;SDS011;8813;54.444;18.446;2023-05-10T05:53:42;1.40;;;1.40;;
17390;SDS011;8813;54.444;18.446;2023-05-10T05:56:09;4.00;;;2.55;;
17390;SDS011;8813;54.444;18.446;2023-05-10T05:58:36;0.90;;;0.90;;
17390;SDS011;8813;54.444;18.446;2023-05-10T06:01:04;1.23;;;1.23;;
17390;SDS011;8813;54.444;18.446;2023-05-10T06:03:32;1.90;;;1.80;;
17390;SDS011;8813;54.444;18.446;2023-05-10T06:05:59;3.70;;;2.53;;
17390;SDS011;8813;54.444;18.446;2023-05-10T06:08:26;1.40;;;1.40;;
17390;SDS011;8813;54.444;18.446;2023-05-10T06:10:54;1.05;;;1.05;;
17390;SDS011;8813;54.444;18.446;2023-05-10T06:13:21;1.55;;;1.45;;
17390;SDS011;8813;54.444;18.446;2023-05-10T06:15:48;1.83;;;1.73;;
17390;SDS011;8813;54.444;18.446;2023-05-10T06:18:17;1.48;;;1.48;;
17390;SDS011;8813;54.444;18.446;2023-05-10T06:20:44;0.85;;;0.85;;
17390;SDS011;8813;54.444;18.446;2023-05-10T06:23:11;10.13;;;2.45;;
17390;SDS011;8813;54.444;18.446;2023-05-10T06:25:38;2.17;;;2.05;;
17390;SDS011;8813;54.444;18.446;2023-05-10T06:28:05;1.80;;;1.70;;
17390;SDS011;8813;54.444;18.446;2023-05-10T06:30:32;1.50;;;1.50;;
17390;SDS011;8813;54.444;18.446;2023-05-10T06:32:59;1.05;;;1.05;;
17390;SDS011;8813;54.444;18.446;2023-05-10T06:35:28;1.17;;;1.17;;
17390;SDS011;8813;54.444;18.446;2023-05-10T06:37:56;4.82;;;2.78;;
17390;SDS011;8813;54.444;18.446;2023-05-10T06:40:23;1.38;;;1.38;;
17390;SDS011;8813;54.444;18.446;2023-05-10T06:42:50;1.70;;;1.60;;
17390;SDS011;8813;54.444;18.446;2023-05-10T06:45:17;2.75;;;2.15;;
17390;SDS011;8813;54.444;18.446;2023-05-10T06:47:44;2.30;;;2.10;;
17390;SDS011;8813;54.444;18.446;2023-05-10T06:50:11;1.77;;;1.77;;
17390;SDS011;8813;54.444;18.446;2023-05-10T06:52:39;0.80;;;0.80;;
17390;SDS011;8813;54.444;18.446;2023-05-10T06:55:07;1.05;;;1.05;;
17390;SDS011;8813;54.444;18.446;2023-05-10T06:57:34;1.27;;;1.27;;
17390;SDS011;8813;54.444;18.446;2023-05-10T07:00:01;2.60;;;2.28;;
17390;SDS011;8813;54.444;18.446;2023-05-10T07:02:30;0.90;;;0.90;;
17390;SDS011;8813;54.444;18.446;2023-05-10T07:04:57;1.73;;;1.63;;
17390;SDS011;8813;54.444;18.446;2023-05-10T07:07:24;1.50;;;1.40;;
17390;SDS011;8813;54.444;18.446;2023-05-10T07:09:52;5.35;;;2.20;;
17390;SDS011;8813;54.444;18.446;2023-05-10T07:12:19;1.35;;;1.35;;
17390;SDS011;8813;54.444;18.446;2023-05-10T07:14:46;35.45;;;4.10;;
17390;SDS011;8813;54.444;18.446;2023-05-10T07:17:13;0.98;;;0.95;;
17390;SDS011;8813;54.444;18.446;2023-05-10T07:19:40;1.45;;;1.45;;
17390;SDS011;8813;54.444;18.446;2023-05-10T07:22:07;2.17;;;1.58;;
17390;SDS011;8813;54.444;18.446;2023-05-10T07:24:34;1.23;;;1.17;;
17390;SDS011;8813;54.444;18.446;2023-05-10T07:27:03;2.63;;;2.42;;
17390;SDS011;8813;54.444;18.446;2023-05-10T07:29:30;4.45;;;1.73;;
17390;SDS011;8813;54.444;18.446;2023-05-10T07:31:57;2.55;;;1.50;;
17390;SDS011;8813;54.444;18.446;2023-05-10T07:34:24;6.47;;;2.15;;
17390;SDS011;8813;54.444;18.446;2023-05-10T07:36:52;2.67;;;2.08;;
17390;SDS011;8813;54.444;18.446;2023-05-10T07:39:19;1.20;;;1.20;;
17390;SDS011;8813;54.444;18.446;2023-05-10T07:41:46;4.43;;;2.10;;
17390;SDS011;8813;54.444;18.446;2023-05-10T07:44:16;2.72;;;1.77;;
17390;SDS011;8813;54.444;18.446;2023-05-10T07:46:45;2.45;;;2.25;;
17390;SDS011;8813;54.444;18.446;2023-05-10T07:49:12;4.20;;;2.58;;
17390;SDS011;8813;54.444;18.446;2023-05-10T07:51:40;2.08;;;1.98;;
17390;SDS011;8813;54.444;18.446;2023-05-10T07:54:07;1.20;;;1.20;;
17390;SDS011;8813;54.444;18.446;2023-05-10T07:56:34;1.50;;;1.40;;
17390;SDS011;8813;54.444;18.446;2023-05-10T07:59:02;1.00;;;1.00;;
17390;SDS011;8813;54.444;18.446;2023-05-10T08:01:31;1.08;;;1.08;;
17390;SDS011;8813;54.444;18.446;2023-05-10T08:03:59;1.67;;;1.65;;
17390;SDS011;8813;54.444;18.446;2023-05-10T08:06:27;1.70;;;1.60;;
17390;SDS011;8813;54.444;18.446;2023-05-10T08:08:55;10.43;;;1.25;;
17390;SDS011;8813;54.444;18.446;2023-05-10T08:11:22;1.70;;;1.60;;
17390;SDS011;8813;54.444;18.446;2023-05-10T08:13:50;1.17;;;1.17;;
17390;SDS011;8813;54.444;18.446;2023-05-10T08:16:17;2.08;;;1.98;;
17390;SDS011;8813;54.444;18.446;2023-05-10T08:18:46;1.30;;;1.20;;
17390;SDS011;8813;54.444;18.446;2023-05-10T08:21:14;1.20;;;1.20;;
17390;SDS011;8813;54.444;18.446;2023-05-10T08:23:41;2.63;;;2.08;;
17390;SDS011;8813;54.444;18.446;2023-05-10T08:26:08;6.95;;;2.17;;
17390;SDS011;8813;54.444;18.446;2023-05-10T08:28:35;2.05;;;1.58;;
17390;SDS011;8813;54.444;18.446;2023-05-10T08:31:02;0.90;;;0.90;;
17390;SDS011;8813;54.444;18.446;2023-05-10T08:33:30;1.13;;;1.13;;
17390;SDS011;8813;54.444;18.446;2023-05-10T08:35:58;4.97;;;2.65;;
17390;SDS011;8813;54.444;18.446;2023-05-10T08:38:25;1.08;;;1.08;;
17390;SDS011;8813;54.444;18.446;2023-05-10T08:40:53;7.10;;;2.88;;
17390;SDS011;8813;54.444;18.446;2023-05-10T08:43:24;8.13;;;2.08;;
17390;SDS011;8813;54.444;18.446;2023-05-10T08:45:53;3.03;;;2.28;;
17390;SDS011;8813;54.444;18.446;2023-05-10T08:48:21;1.73;;;1.73;;
17390;SDS011;8813;54.444;18.446;2023-05-10T08:50:50;2.08;;;1.98;;
17390;SDS011;8813;54.444;18.446;2023-05-10T08:53:21;2.30;;;2.20;;
17390;SDS011;8813;54.444;18.446;2023-05-10T08:55:51;5.28;;;3.25;;
17390;SDS011;8813;54.444;18.446;2023-05-10T08:58:19;1.50;;;1.50;;
17390;SDS011;8813;54.444;18.446;2023-05-10T09:00:49;1.88;;;1.77;;
17390;SDS011;8813;54.444;18.446;2023-05-10T09:03:17;1.00;;;1.00;;
17390;SDS011;8813;54.444;18.446;2023-05-10T09:05:44;1.70;;;1.60;;
17390;SDS011;8813;54.444;18.446;2023-05-10T09:08:11;2.33;;;2.22;;
17390;SDS011;8813;54.444;18.446;2023-05-10T09:10:41;3.08;;;1.55;;
17390;SDS011;8813;54.444;18.446;2023-05-10T09:13:08;1.58;;;1.50;;
17390;SDS011;8813;54.444;18.446;2023-05-10T09:15:37;2.08;;;1.98;;
17390;SDS011;8813;54.444;18.446;2023-05-10T09:18:04;2.78;;;2.65;;
17390;SDS011;8813;54.444;18.446;2023-05-10T09:20:31;2.38;;;2.10;;
17390;SDS011;8813;54.444;18.446;2023-05-10T09:22:58;14.70;;;1.15;;
17390;SDS011;8813;54.444;18.446;2023-05-10T09:25:25;2.45;;;2.13;;
17390;SDS011;8813;54.444;18.446;2023-05-10T09:27:53;1.88;;;1.88;;
17390;SDS011;8813;54.444;18.446;2023-05-10T09:30:25;1.65;;;1.55;;
17390;SDS011;8813;54.444;18.446;2023-05-10T09:32:53;2.25;;;1.90;;
17390;SDS011;8813;54.444;18.446;2023-05-10T09:35:21;1.17;;;1.17;;
17390;SDS011;8813;54.444;18.446;2023-05-10T09:37:51;3.47;;;1.45;;
17390;SDS011;8813;54.444;18.446;2023-05-10T09:40:19;2.13;;;2.03;;
17390;SDS011;8813;54.444;18.446;2023-05-10T09:42:56;5.93;;;2.55;;
17390;SDS011;8813;54.444;18.446;2023-05-10T09:45:24;3.33;;;1.55;;
17390;SDS011;8813;54.444;18.446;2023-05-10T09:47:51;0.95;;;0.95;;
17390;SDS011;8813;54.444;18.446;2023-05-10T09:50:19;1.20;;;1.20;;
17390;SDS011;8813;54.444;18.446;2023-05-10T09:52:47;7.95;;;3.40;;
17390;SDS011;8813;54.444;18.446;2023-05-10T09:55:16;9.80;;;2.90;;
17390;SDS011;8813;54.444;18.446;2023-05-10T09:57:44;0.90;;;0.90;;
17390;SDS011;8813;54.444;18.446;2023-05-10T10:00:13;1.02;;;1.02;;
17390;SDS011;8813;54.444;18.446;2023-05-10T10:02:44;2.03;;;1.98;;
17390;SDS011;8813;54.444;18.446;2023-05-10T10:05:12;1.35;;;1.35;;
17390;SDS011;8813;54.444;18.446;2023-05-10T10:07:39;2.15;;;2.05;;
17390;SDS011;8813;54.444;18.446;2023-05-10T10:10:07;1.05;;;1.05;;
17390;SDS011;8813;54.444;18.446;2023-05-10T10:12:37;2.55;;;2.45;;
17390;SDS011;8813;54.444;18.446;2023-05-10T10:15:05;1.50;;;1.45;;
17390;SDS011;8813;54.444;18.446;2023-05-10T10:17:36;3.10;;;1.40;;
17390;SDS011;8813;54.444;18.446;2023-05-10T10:20:05;1.45;;;1.45;;
17390;SDS011;8813;54.444;18.446;2023-05-10T10:22:33;2.15;;;1.80;;
17390;SDS011;8813;54.444;18.446;2023-05-10T10:25:00;1.52;;;1.45;;
17390;SDS011;8813;54.444;18.446;2023-05-10T10:27:28;1.38;;;1.38;;
17390;SDS011;8813;54.444;18.446;2023-05-10T10:30:04;1.55;;;1.50;;
17390;SDS011;8813;54.444;18.446;2023-05-10T10:32:42;1.20;;;1.20;;
17390;SDS011;8813;54.444;18.446;2023-05-10T10:35:22;2.80;;;2.08;;
17390;SDS011;8813;54.444;18.446;2023-05-10T10:37:50;3.00;;;1.67;;
17390;SDS011;8813;54.444;18.446;2023-05-10T10:40:27;4.32;;;2.38;;
17390;SDS011;8813;54.444;18.446;2023-05-10T10:42:55;1.58;;;1.58;;
17390;SDS011;8813;54.444;18.446;2023-05-10T10:45:23;3.13;;;1.85;;
17390;SDS011;8813;54.444;18.446;2023-05-10T10:47:56;1.02;;;1.02;;
17390;SDS011;8813;54.444;18.446;2023-05-10T10:50:48;1.25;;;1.23;;
17390;SDS011;8813;54.444;18.446;2023-05-10T10:53:23;4.78;;;2.00;;
17390;SDS011;8813;54.444;18.446;2023-05-10T10:55:53;1.95;;;1.65;;
17390;SDS011;8813;54.444;18.446;2023-05-10T10:58:32;4.30;;;1.17;;
17390;SDS011;8813;54.444;18.446;2023-05-10T11:01:10;2.08;;;1.90;;
17390;SDS011;8813;54.444;18.446;2023-05-10T11:03:39;1.10;;;1.10;;
17390;SDS011;8813;54.444;18.446;2023-05-10T11:06:06;1.17;;;1.17;;
17390;SDS011;8813;54.444;18.446;2023-05-10T11:08:35;3.45;;;1.63;;
17390;SDS011;8813;54.444;18.446;2023-05-10T11:11:09;1.55;;;1.48;;
17390;SDS011;8813;54.444;18.446;2023-05-10T11:13:39;1.40;;;1.40;;
17390;SDS011;8813;54.444;18.446;2023-05-10T11:16:11;2.20;;;2.10;;
17390;SDS011;8813;54.444;18.446;2023-05-10T11:18:56;1.75;;;1.73;;
17390;SDS011;8813;54.444;18.446;2023-05-10T11:21:25;1.45;;;1.45;;
17390;SDS011;8813;54.444;18.446;2023-05-10T11:23:54;1.10;;;1.10;;
17390;SDS011;8813;54.444;18.446;2023-05-10T11:26:22;1.35;;;1.35;;
17390;SDS011;8813;54.444;18.446;2023-05-10T11:28:51;1.75;;;1.65;;
17390;SDS011;8813;54.444;18.446;2023-05-10T11:31:20;1.40;;;1.40;;
17390;SDS011;8813;54.444;18.446;2023-05-10T11:33:47;2.00;;;1.60;;
17390;SDS011;8813;54.444;18.446;2023-05-10T11:36:18;1.65;;;1.60;;
17390;SDS011;8813;54.444;18.446;2023-05-10T11:38:46;1.55;;;1.48;;
17390;SDS011;8813;54.444;18.446;2023-05-10T11:41:15;4.20;;;2.60;;
17390;SDS011;8813;54.444;18.446;2023-05-10T11:43:45;1.67;;;1.67;;
17390;SDS011;8813;54.444;18.446;2023-05-10T11:46:14;3.20;;;1.60;;
17390;SDS011;8813;54.444;18.446;2023-05-10T11:48:41;1.30;;;1.20;;
17390;SDS011;8813;54.444;18.446;2023-05-10T11:51:08;3.38;;;2.53;;
17390;SDS011;8813;54.444;18.446;2023-05-10T11:53:37;1.20;;;1.20;;
17390;SDS011;8813;54.444;18.446;2023-05-10T11:56:05;2.30;;;1.65;;
17390;SDS011;8813;54.444;18.446;2023-05-10T11:58:32;1.00;;;1.00;;
17390;SDS011;8813;54.444;18.446;2023-05-10T12:00:59;3.72;;;2.53;;
17390;SDS011;8813;54.444;18.446;2023-05-10T12:03:27;1.42;;;1.40;;
17390;SDS011;8813;54.444;18.446;2023-05-10T12:05:54;2.45;;;2.25;;
17390;SDS011;8813;54.444;18.446;2023-05-10T12:08:22;1.40;;;1.40;;
17390;SDS011;8813;54.444;18.446;2023-05-10T12:10:51;11.30;;;2.63;;
17390;SDS011;8813;54.444;18.446;2023-05-10T12:13:18;10.43;;;5.93;;
17390;SDS011;8813;54.444;18.446;2023-05-10T12:15:46;7.78;;;3.70;;
17390;SDS011;8813;54.444;18.446;2023-05-10T12:18:14;5.18;;;2.90;;
17390;SDS011;8813;54.444;18.446;2023-05-10T12:20:41;4.00;;;3.63;;
17390;SDS011;8813;54.444;18.446;2023-05-10T12:23:08;4.35;;;3.92;;
17390;SDS011;8813;54.444;18.446;2023-05-10T12:25:36;1.70;;;1.60;;
17390;SDS011;8813;54.444;18.446;2023-05-10T12:28:06;2.50;;;2.30;;
17390;SDS011;8813;54.444;18.446;2023-05-10T12:30:34;1.40;;;1.40;;
17390;SDS011;8813;54.444;18.446;2023-05-10T12:33:02;1.38;;;1.38;;
17390;SDS011;8813;54.444;18.446;2023-05-10T12:35:33;5.90;;;2.75;;
17390;SDS011;8813;54.444;18.446;2023-05-10T12:38:24;1.27;;;1.27;;
17390;SDS011;8813;54.444;18.446;2023-05-10T12:40:52;4.80;;;3.67;;
17390;SDS011;8813;54.444;18.446;2023-05-10T12:43:20;3.72;;;3.10;;
17390;SDS011;8813;54.444;18.446;2023-05-10T12:45:47;6.28;;;3.58;;
17390;SDS011;8813;54.444;18.446;2023-05-10T12:48:15;5.32;;;3.03;;
17390;SDS011;8813;54.444;18.446;2023-05-10T12:50:42;5.13;;;3.10;;
17390;SDS011;8813;54.444;18.446;2023-05-10T12:53:08;6.03;;;4.35;;
17390;SDS011;8813;54.444;18.446;2023-05-10T12:55:35;5.00;;;3.53;;
17390;SDS011;8813;54.444;18.446;2023-05-10T12:58:02;7.53;;;3.35;;
17390;SDS011;8813;54.444;18.446;2023-05-10T13:00:31;5.53;;;3.33;;
17390;SDS011;8813;54.444;18.446;2023-05-10T13:02:58;5.28;;;3.15;;
17390;SDS011;8813;54.444;18.446;2023-05-10T13:05:25;6.25;;;3.15;;
17390;SDS011;8813;54.444;18.446;2023-05-10T13:07:52;5.32;;;3.92;;
17390;SDS011;8813;54.444;18.446;2023-05-10T13:10:19;7.03;;;3.40;;
17390;SDS011;8813;54.444;18.446;2023-05-10T13:12:47;6.85;;;3.75;;
17390;SDS011;8813;54.444;18.446;2023-05-10T13:15:14;9.90;;;3.90;;
17390;SDS011;8813;54.444;18.446;2023-05-10T13:17:42;8.43;;;3.85;;
17390;SDS011;8813;54.444;18.446;2023-05-10T13:20:10;8.93;;;4.85;;
17390;SDS011;8813;54.444;18.446;2023-05-10T13:22:37;6.35;;;3.97;;
17390;SDS011;8813;54.444;18.446;2023-05-10T13:25:04;6.25;;;3.63;;
17390;SDS011;8813;54.444;18.446;2023-05-10T13:27:32;6.43;;;3.83;;
17390;SDS011;8813;54.444;18.446;2023-05-10T13:29:59;7.00;;;3.15;;
17390;SDS011;8813;54.444;18.446;2023-05-10T13:32:26;9.65;;;4.43;;
17390;SDS011;8813;54.444;18.446;2023-05-10T13:34:54;6.30;;;4.65;;
17390;SDS011;8813;54.444;18.446;2023-05-10T13:37:21;5.43;;;3.95;;
17390;SDS011;8813;54.444;18.446;2023-05-10T13:39:48;5.13;;;3.30;;
17390;SDS011;8813;54.444;18.446;2023-05-10T13:42:16;5.53;;;3.40;;
17390;SDS011;8813;54.444;18.446;2023-05-10T13:44:43;9.20;;;3.33;;
17390;SDS011;8813;54.444;18.446;2023-05-10T13:47:10;6.32;;;3.53;;
17390;SDS011;8813;54.444;18.446;2023-05-10T13:49:37;3.83;;;3.25;;
17390;SDS011;8813;54.444;18.446;2023-05-10T13:52:05;4.85;;;3.47;;
17390;SDS011;8813;54.444;18.446;2023-05-10T13:54:32;5.05;;;3.50;;
17390;SDS011;8813;54.444;18.446;2023-05-10T13:56:59;3.83;;;3.10;;
17390;SDS011;8813;54.444;18.446;2023-05-10T13:59:26;7.03;;;3.50;;
17390;SDS011;8813;54.444;18.446;2023-05-10T14:01:53;5.93;;;3.60;;
17390;SDS011;8813;54.444;18.446;2023-05-10T14:04:19;7.25;;;3.70;;
17390;SDS011;8813;54.444;18.446;2023-05-10T14:06:46;6.22;;;3.83;;
17390;SDS011;8813;54.444;18.446;2023-05-10T14:09:15;5.82;;;3.08;;
17390;SDS011;8813;54.444;18.446;2023-05-10T14:11:42;5.30;;;3.22;;
17390;SDS011;8813;54.444;18.446;2023-05-10T14:14:10;5.72;;;3.50;;
17390;SDS011;8813;54.444;18.446;2023-05-10T14:16:38;7.13;;;3.58;;
17390;SDS011;8813;54.444;18.446;2023-05-10T14:19:08;6.28;;;3.00;;
17390;SDS011;8813;54.444;18.446;2023-05-10T14:21:35;5.80;;;3.38;;
17390;SDS011;8813;54.444;18.446;2023-05-10T14:24:01;4.28;;;3.10;;
17390;SDS011;8813;54.444;18.446;2023-05-10T14:26:31;4.57;;;2.70;;
17390;SDS011;8813;54.444;18.446;2023-05-10T14:28:58;1.27;;;1.27;;
17390;SDS011;8813;54.444;18.446;2023-05-10T14:31:25;1.90;;;1.73;;
17390;SDS011;8813;54.444;18.446;2023-05-10T14:33:52;7.63;;;2.58;;
17390;SDS011;8813;54.444;18.446;2023-05-10T14:36:19;3.13;;;2.08;;
17390;SDS011;8813;54.444;18.446;2023-05-10T14:38:46;3.28;;;2.13;;
17390;SDS011;8813;54.444;18.446;2023-05-10T14:41:12;1.30;;;1.30;;
17390;SDS011;8813;54.444;18.446;2023-05-10T14:43:42;1.10;;;1.10;;
17390;SDS011;8813;54.444;18.446;2023-05-10T14:46:09;3.30;;;2.42;;
17390;SDS011;8813;54.444;18.446;2023-05-10T14:48:36;2.35;;;1.67;;
17390;SDS011;8813;54.444;18.446;2023-05-10T14:51:03;1.05;;;1.05;;
17390;SDS011;8813;54.444;18.446;2023-05-10T14:53:30;1.95;;;1.77;;
17390;SDS011;8813;54.444;18.446;2023-05-10T14:55:57;2.08;;;1.98;;
17390;SDS011;8813;54.444;18.446;2023-05-10T14:58:26;3.17;;;2.15;;
17390;SDS011;8813;54.444;18.446;2023-05-10T15:00:55;4.05;;;1.77;;
17390;SDS011;8813;54.444;18.446;2023-05-10T15:03:21;1.92;;;1.25;;